Time;durP1;ratioP1;P1;durP2;ratioP2;P2;SDS_P1;SDS_P2;PMS_P1;PMS_P2;Temp;Humidity;BMP_temperature;BMP_pressure;BME280_temperature;BME280_humidity;BME280_pressure;Samples;Min_cycle;Max_cycle;Signal;HPM_P1;HPM_P2
2023/04/01 00:00:31;;;;;;;2.05;0.95;;;10.50;99.90;;;;;;6268225;28;20049;-78
2023/04/01 00:03:33;;;;;;;2.80;0.80;;;10.50;99.90;;;;;;6267651;28;20072;-78
2023/04/01 00:06:36;;;;;;;3.90;0.80;;;10.50;99.90;;;;;;6268231;28;20053;-77
2023/04/01 00:09:38;;;;;;;1.92;1.17;;;10.50;99.90;;;;;;6275038;28;20041;-79
2023/04/01 00:12:41;;;;;;;3.92;0.95;;;10.50;99.90;;;;;;6275428;28;20041;-78
2023/04/01 00:15:43;;;;;;;2.72;1.40;;;10.40;99.90;;;;;;6268906;28;20407;-79
2023/04/01 00:18:46;;;;;;;1.20;0.75;;;10.40;99.90;;;;;;6270186;28;20061;-78
2023/04/01 00:21:49;;;;;;;4.90;1.05;;;10.40;99.90;;;;;;6267888;28;20114;-79
2023/04/01 00:24:51;;;;;;;5.03;1.35;;;10.40;99.90;;;;;;6268915;28;20045;-79
2023/04/01 00:27:53;;;;;;;3.58;0.82;;;10.40;99.90;;;;;;6267061;28;20503;-78
2023/04/01 00:30:56;;;;;;;3.58;1.10;;;10.50;99.90;;;;;;6269624;28;20555;-79
2023/04/01 00:33:57;;;;;;;1.20;1.00;;;10.50;99.90;;;;;;6267095;28;20435;-78
2023/04/01 00:37:00;;;;;;;3.25;1.10;;;10.50;99.90;;;;;;6262166;28;20495;-78
2023/04/01 00:40:02;;;;;;;5.40;0.82;;;10.60;99.90;;;;;;6265230;28;20499;-78
2023/04/01 00:43:10;;;;;;;3.22;1.10;;;10.60;99.90;;;;;;6273632;28;20052;-79
2023/04/01 00:46:12;;;;;;;3.75;0.90;;;10.60;99.90;;;;;;6278145;28;20044;-79
2023/04/01 00:49:14;;;;;;;7.50;0.90;;;10.60;99.90;;;;;;6277975;28;20060;-79
2023/04/01 00:52:22;;;;;;;2.10;0.88;;;10.50;99.90;;;;;;6276383;28;20044;-79
2023/04/01 00:55:25;;;;;;;2.13;0.77;;;10.50;99.90;;;;;;6275863;28;20049;-78
2023/04/01 00:58:30;;;;;;;4.15;0.90;;;10.50;99.90;;;;;;6277751;28;20053;-79
2023/04/01 01:01:33;;;;;;;1.15;0.55;;;10.40;99.90;;;;;;6274224;28;20060;-78
2023/04/01 01:04:35;;;;;;;1.75;0.60;;;10.50;99.90;;;;;;6265385;28;20045;-78
2023/04/01 01:07:46;;;;;;;2.25;0.77;;;10.50;99.90;;;;;;6265810;28;20052;-78
2023/04/01 01:10:50;;;;;;;1.42;0.90;;;10.50;99.90;;;;;;6266942;28;20053;-78
2023/04/01 01:14:00;;;;;;;4.78;0.90;;;10.50;99.90;;;;;;6266271;28;20071;-78
2023/04/01 01:17:11;;;;;;;5.90;0.90;;;10.50;99.90;;;;;;6270818;28;20052;-78
2023/04/01 01:20:48;;;;;;;2.67;0.60;;;10.50;99.90;;;;;;6266673;28;20052;-78
2023/04/01 01:24:22;;;;;;;1.30;0.60;;;10.50;99.90;;;;;;6266702;28;20060;-78
2023/04/01 01:27:24;;;;;;;2.97;0.70;;;10.50;99.90;;;;;;6261049;28;20045;-78
2023/04/01 01:30:38;;;;;;;1.65;0.60;;;10.50;99.90;;;;;;6266102;28;20526;-78
2023/04/01 01:33:58;;;;;;;4.93;1.42;;;10.50;99.90;;;;;;6270731;28;20487;-79
2023/04/01 01:37:05;;;;;;;1.23;0.85;;;10.50;99.90;;;;;;6269314;28;20064;-78
2023/04/01 01:40:10;;;;;;;1.42;0.60;;;10.50;99.90;;;;;;6267617;28;20045;-79
2023/04/01 01:43:16;;;;;;;2.20;0.70;;;10.40;99.90;;;;;;6268227;28;20055;-78
2023/04/01 01:46:22;;;;;;;2.83;0.70;;;10.50;99.90;;;;;;6269945;28;20045;-79
2023/04/01 01:49:25;;;;;;;1.10;0.65;;;10.40;99.90;;;;;;6268700;28;20052;-80
2023/04/01 01:52:29;;;;;;;0.77;0.60;;;10.40;99.90;;;;;;6275576;28;20136;-79
2023/04/01 01:55:34;;;;;;;0.40;0.40;;;10.30;99.90;;;;;;6276247;28;20057;-79
2023/04/01 01:58:41;;;;;;;1.27;0.55;;;10.30;99.90;;;;;;6274836;28;20057;-79
2023/04/01 02:01:46;;;;;;;0.82;0.50;;;10.20;99.90;;;;;;6269542;28;20056;-76
2023/04/01 02:04:48;;;;;;;0.45;0.35;;;10.10;99.90;;;;;;6270776;28;20049;-79
2023/04/01 02:07:58;;;;;;;1.10;0.75;;;10.00;99.90;;;;;;6269659;28;20045;-79
2023/04/01 02:11:04;;;;;;;0.30;0.30;;;10.00;99.90;;;;;;6270297;28;20069;-78
2023/04/01 02:14:10;;;;;;;0.20;0.17;;;10.00;99.90;;;;;;6267708;28;20388;-79
2023/04/01 02:17:15;;;;;;;0.65;0.65;;;10.00;99.90;;;;;;6266942;28;20055;-77
2023/04/01 02:20:20;;;;;;;0.30;0.30;;;10.00;99.90;;;;;;6270318;28;20041;-79
2023/04/01 02:23:24;;;;;;;1.85;0.55;;;10.10;99.90;;;;;;6274821;28;20057;-80
2023/04/01 02:26:27;;;;;;;0.80;0.70;;;10.10;99.90;;;;;;6279105;28;20053;-79
2023/04/01 02:29:28;;;;;;;0.40;0.40;;;10.10;99.90;;;;;;6276397;28;20053;-79
2023/04/01 02:32:32;;;;;;;0.55;0.55;;;10.10;99.90;;;;;;6275471;28;20639;-79
2023/04/01 02:35:35;;;;;;;1.13;0.38;;;10.10;99.90;;;;;;6272458;28;20056;-79
2023/04/01 02:38:39;;;;;;;0.20;0.20;;;10.10;99.90;;;;;;6271059;28;20061;-78
2023/04/01 02:41:41;;;;;;;0.82;0.40;;;10.10;99.90;;;;;;6270688;28;20041;-79
2023/04/01 02:44:43;;;;;;;0.85;0.43;;;10.10;99.90;;;;;;6270383;28;20391;-78
2023/04/01 02:47:45;;;;;;;0.22;0.20;;;10.10;99.90;;;;;;6270508;28;20566;-78
2023/04/01 02:50:47;;;;;;;0.40;0.40;;;10.10;99.90;;;;;;6273744;28;20064;-79
2023/04/01 02:53:50;;;;;;;1.00;0.60;;;10.10;99.90;;;;;;6274246;28;20037;-77
2023/04/01 02:56:51;;;;;;;2.25;0.55;;;10.10;99.90;;;;;;6279787;28;20163;-79
2023/04/01 02:59:53;;;;;;;3.30;0.60;;;10.20;99.90;;;;;;6274107;28;20051;-79
2023/04/01 03:02:55;;;;;;;0.30;0.30;;;10.10;99.90;;;;;;6275400;28;20040;-79
2023/04/01 03:05:58;;;;;;;1.70;0.70;;;10.10;99.90;;;;;;6274638;28;20041;-79
2023/04/01 03:09:02;;;;;;;0.50;0.50;;;10.10;99.90;;;;;;6278625;28;20045;-79
2023/04/01 03:12:04;;;;;;;0.40;0.35;;;10.10;99.90;;;;;;6272674;28;20033;-79
2023/04/01 03:15:06;;;;;;;0.40;0.40;;;10.10;99.90;;;;;;6254695;28;20045;-78
2023/04/01 03:18:08;;;;;;;0.40;0.40;;;10.10;99.90;;;;;;6272392;28;20044;-79
2023/04/01 03:21:15;;;;;;;1.80;0.30;;;10.10;99.90;;;;;;6271914;28;20159;-79
2023/04/01 03:24:18;;;;;;;0.65;0.40;;;10.10;99.90;;;;;;6270889;28;20076;-77
2023/04/01 03:27:19;;;;;;;2.17;0.57;;;10.10;99.90;;;;;;6272185;28;20068;-79
2023/04/01 03:30:21;;;;;;;2.20;0.60;;;10.10;99.90;;;;;;6272957;28;20060;-79
2023/04/01 03:33:23;;;;;;;1.08;0.40;;;10.20;99.90;;;;;;6271997;28;20040;-79
2023/04/01 03:36:24;;;;;;;0.60;0.60;;;10.20;99.90;;;;;;6273017;28;20162;-79
2023/04/01 03:39:27;;;;;;;0.63;0.43;;;10.20;99.90;;;;;;6270612;28;20052;-78
2023/04/01 03:42:32;;;;;;;0.60;0.50;;;10.20;99.90;;;;;;6267759;28;20041;-78
2023/04/01 03:45:33;;;;;;;1.20;0.60;;;10.20;99.90;;;;;;6266539;28;20059;-77
2023/04/01 03:48:35;;;;;;;0.50;0.50;;;10.20;99.90;;;;;;6268190;28;20056;-78
2023/04/01 03:51:37;;;;;;;2.25;0.40;;;10.20;99.90;;;;;;6267675;28;20068;-78
2023/04/01 03:54:40;;;;;;;1.20;1.05;;;10.20;99.90;;;;;;6269270;28;20052;-78
2023/04/01 03:57:41;;;;;;;2.58;0.82;;;10.30;99.90;;;;;;6268665;28;20048;-78
2023/04/01 04:00:43;;;;;;;5.50;0.90;;;10.30;99.90;;;;;;6272200;28;20056;-79
2023/04/01 04:03:45;;;;;;;1.83;0.60;;;10.30;99.90;;;;;;6272373;28;20053;-79
2023/04/01 04:06:47;;;;;;;0.68;0.68;;;10.30;99.90;;;;;;6270792;28;20049;-79
2023/04/01 04:09:50;;;;;;;3.60;0.80;;;10.30;99.90;;;;;;6272229;28;20049;-79
2023/04/01 04:12:53;;;;;;;4.13;0.90;;;10.30;99.90;;;;;;6270847;28;20037;-79
2023/04/01 04:15:54;;;;;;;1.33;0.68;;;10.30;99.90;;;;;;6277147;28;20060;-79
2023/04/01 04:18:56;;;;;;;1.92;1.10;;;10.40;99.90;;;;;;6281361;28;20052;-79
2023/04/01 04:22:00;;;;;;;2.53;0.90;;;10.40;99.90;;;;;;6279814;28;20053;-80
2023/04/01 04:25:03;;;;;;;1.35;0.60;;;10.40;99.90;;;;;;6271564;28;20048;-80
2023/04/01 04:28:05;;;;;;;2.30;0.60;;;10.40;99.90;;;;;;6270568;28;20053;-79
2023/04/01 04:31:07;;;;;;;3.42;0.88;;;10.50;99.90;;;;;;6280951;28;20052;-80
2023/04/01 04:34:09;;;;;;;3.83;0.90;;;10.50;99.90;;;;;;6281751;28;20071;-79
2023/04/01 04:37:11;;;;;;;3.78;1.63;;;10.50;99.90;;;;;;6275402;28;20039;-81
2023/04/01 04:40:14;;;;;;;1.20;0.73;;;10.50;99.90;;;;;;6269711;28;20055;-82
2023/04/01 04:43:17;;;;;;;4.45;0.85;;;10.50;99.90;;;;;;6269744;28;20766;-81
2023/04/01 04:46:19;;;;;;;3.20;1.00;;;10.50;99.90;;;;;;6268283;28;20420;-81
2023/04/01 04:49:21;;;;;;;0.93;0.70;;;10.60;99.90;;;;;;6267248;28;20048;-82
2023/04/01 04:52:23;;;;;;;2.92;0.85;;;10.60;99.90;;;;;;6275700;28;20045;-82
2023/04/01 04:55:26;;;;;;;2.40;1.13;;;10.60;99.90;;;;;;6278645;28;20045;-83
2023/04/01 04:58:28;;;;;;;2.88;0.80;;;10.60;99.90;;;;;;6280943;28;20064;-82
2023/04/01 05:01:29;;;;;;;2.03;0.68;;;10.50;99.90;;;;;;6274536;28;20064;-80
2023/04/01 05:04:35;;;;;;;2.38;0.75;;;10.50;99.90;;;;;;6273966;28;20053;-80
2023/04/01 05:07:37;;;;;;;4.38;0.85;;;10.50;99.90;;;;;;6272044;28;20076;-79
2023/04/01 05:10:40;;;;;;;1.83;0.60;;;10.50;99.90;;;;;;6272202;28;20053;-79
2023/04/01 05:13:42;;;;;;;1.00;0.90;;;10.50;99.90;;;;;;6272041;28;20048;-80
2023/04/01 05:16:44;;;;;;;8.15;2.40;;;10.50;99.90;;;;;;6272942;28;20048;-80
2023/04/01 05:19:46;;;;;;;1.88;0.95;;;10.50;99.90;;;;;;6272909;28;20429;-81
2023/04/01 05:22:48;;;;;;;0.93;0.43;;;10.50;99.90;;;;;;6273812;28;20136;-80
2023/04/01 05:25:52;;;;;;;0.25;0.22;;;10.40;99.90;;;;;;6271879;28;20049;-80
2023/04/01 05:28:54;;;;;;;0.50;0.30;;;10.40;99.90;;;;;;6272665;28;20048;-81
2023/04/01 05:31:55;;;;;;;1.23;0.40;;;10.30;99.90;;;;;;6269911;28;20696;-81
2023/04/01 05:34:57;;;;;;;1.00;0.40;;;10.30;99.90;;;;;;6271292;28;20059;-81
2023/04/01 05:37:59;;;;;;;3.95;0.95;;;10.20;99.90;;;;;;6270560;28;20143;-81
2023/04/01 05:41:03;;;;;;;1.35;0.60;;;10.00;99.90;;;;;;6273555;28;20438;-81
2023/04/01 05:44:05;;;;;;;0.60;0.50;;;9.90;99.90;;;;;;6271746;28;20052;-81
2023/04/01 05:47:07;;;;;;;1.17;0.95;;;9.80;99.90;;;;;;6272932;28;20514;-81
2023/04/01 05:50:10;;;;;;;3.65;0.85;;;9.60;99.90;;;;;;6273909;28;20415;-81
2023/04/01 05:53:12;;;;;;;2.08;0.70;;;9.50;99.90;;;;;;6271587;28;20114;-81
2023/04/01 05:56:15;;;;;;;1.95;0.60;;;9.50;99.90;;;;;;6274892;28;20048;-81
2023/04/01 05:59:17;;;;;;;1.98;0.60;;;9.40;99.90;;;;;;6276709;28;20045;-81
2023/04/01 06:02:19;;;;;;;1.27;0.60;;;9.30;99.90;;;;;;6278670;28;20048;-80
2023/04/01 06:05:22;;;;;;;2.42;0.70;;;9.20;99.90;;;;;;6274524;28;20056;-80
2023/04/01 06:08:25;;;;;;;1.77;0.60;;;9.20;99.90;;;;;;6280503;28;20059;-83
2023/04/01 06:11:38;;;;;;;2.38;0.82;;;9.00;99.90;;;;;;6321365;22;20024;-78
2023/04/01 06:14:54;;;;;;;0.80;0.43;;;9.00;99.90;;;;;;6292043;28;20078;-78
2023/04/01 06:18:36;;;;;;;4.85;0.95;;;9.00;99.90;;;;;;6284788;28;20059;-78
2023/04/01 06:21:57;;;;;;;0.70;0.70;;;9.00;99.90;;;;;;6274903;28;20049;-78
2023/04/01 06:25:20;;;;;;;3.17;0.80;;;9.00;99.90;;;;;;6289046;28;20055;-78
2023/04/01 06:28:51;;;;;;;0.60;0.60;;;9.10;99.90;;;;;;6277100;28;20499;-78
2023/04/01 06:32:31;;;;;;;0.57;0.40;;;9.10;99.90;;;;;;6288044;28;20059;-78
2023/04/01 06:35:47;;;;;;;0.98;0.60;;;9.20;99.90;;;;;;6289560;28;20044;-79
2023/04/01 06:39:02;;;;;;;1.00;0.70;;;9.30;99.90;;;;;;6287250;28;20058;-78
2023/04/01 06:42:25;;;;;;;4.10;1.00;;;9.20;99.90;;;;;;6287054;28;20064;-79
2023/04/01 06:45:37;;;;;;;0.70;0.50;;;9.20;99.90;;;;;;6291892;28;20049;-78
2023/04/01 06:48:54;;;;;;;1.15;0.50;;;9.20;99.90;;;;;;6288853;28;20049;-79
2023/04/01 06:52:03;;;;;;;3.30;0.73;;;9.20;99.90;;;;;;6294616;28;20049;-78
2023/04/01 06:55:19;;;;;;;1.25;0.55;;;9.30;99.90;;;;;;6292416;28;20112;-79
2023/04/01 06:58:23;;;;;;;1.67;0.75;;;9.40;99.90;;;;;;6290481;28;20040;-79
2023/04/01 07:01:30;;;;;;;1.33;0.70;;;9.50;99.90;;;;;;6294876;28;20121;-78
2023/04/01 07:04:35;;;;;;;2.67;1.05;;;9.50;99.90;;;;;;6295685;28;20029;-78
2023/04/01 07:07:42;;;;;;;4.35;1.33;;;9.50;99.90;;;;;;6290636;28;22551;-78
2023/04/01 07:10:48;;;;;;;1.38;0.65;;;9.50;99.90;;;;;;6298325;28;20060;-79
2023/04/01 07:13:54;;;;;;;6.22;1.45;;;9.60;99.90;;;;;;6290308;28;20047;-78
2023/04/01 07:17:01;;;;;;;3.40;0.80;;;9.60;99.90;;;;;;6290661;28;20041;-77
2023/04/01 07:20:12;;;;;;;3.65;0.95;;;9.60;99.90;;;;;;6267172;28;20183;-79
2023/04/01 07:23:23;;;;;;;3.30;0.70;;;9.60;99.90;;;;;;6275255;28;20029;-78
2023/04/01 07:26:26;;;;;;;2.65;1.23;;;9.60;99.90;;;;;;6287100;28;20053;-78
2023/04/01 07:29:28;;;;;;;5.88;1.40;;;9.50;99.90;;;;;;6280404;28;20268;-79
2023/04/01 07:32:42;;;;;;;2.55;1.00;;;9.40;99.90;;;;;;6285943;28;20044;-78
2023/04/01 07:35:51;;;;;;;2.25;0.88;;;9.30;99.90;;;;;;6280102;28;20049;-78
2023/04/01 07:39:05;;;;;;;3.03;0.88;;;9.30;99.90;;;;;;6279903;28;20195;-79
2023/04/01 07:42:13;;;;;;;3.42;1.00;;;9.20;99.90;;;;;;6272932;28;20071;-78
2023/04/01 07:45:23;;;;;;;2.40;1.17;;;9.20;99.90;;;;;;6278652;28;20735;-79
2023/04/01 07:48:33;;;;;;;7.97;0.95;;;9.00;99.90;;;;;;6282120;28;20411;-79
2023/04/01 07:51:43;;;;;;;10.40;1.17;;;9.00;99.90;;;;;;6284909;28;20131;-79
2023/04/01 07:54:50;;;;;;;6.30;1.60;;;9.00;99.90;;;;;;6285632;28;20066;-79
2023/04/01 07:57:59;;;;;;;4.57;0.98;;;8.90;99.90;;;;;;6289761;28;20044;-77
2023/04/01 08:01:07;;;;;;;4.07;0.63;;;8.90;99.90;;;;;;6279910;28;20048;-79
2023/04/01 08:04:24;;;;;;;5.88;1.88;;;9.00;99.90;;;;;;6283795;28;20049;-79
2023/04/01 08:07:32;;;;;;;4.85;2.22;;;9.00;99.90;;;;;;6284796;28;20059;-79
2023/04/01 08:10:40;;;;;;;3.03;1.52;;;9.10;99.90;;;;;;6284906;28;20056;-78
2023/04/01 08:13:49;;;;;;;6.30;1.20;;;9.10;99.90;;;;;;6287041;28;20049;-79
2023/04/01 08:17:01;;;;;;;5.60;1.25;;;9.20;99.90;;;;;;6286680;28;20406;-78
2023/04/01 08:20:19;;;;;;;6.43;3.67;;;9.40;99.90;;;;;;6290498;28;20052;-78
2023/04/01 08:23:26;;;;;;;3.47;1.30;;;9.50;99.90;;;;;;6286513;28;20053;-77
2023/04/01 08:26:46;;;;;;;8.77;1.43;;;9.60;99.90;;;;;;6290449;28;20079;-77
2023/04/01 08:29:53;;;;;;;3.00;1.00;;;9.70;99.90;;;;;;6286543;28;20052;-78
2023/04/01 08:32:59;;;;;;;4.22;1.08;;;9.70;99.90;;;;;;6279723;28;20447;-79
2023/04/01 08:36:09;;;;;;;5.97;1.55;;;9.80;99.90;;;;;;6277668;28;20060;-79
2023/04/01 08:39:15;;;;;;;3.08;0.63;;;9.80;99.90;;;;;;6282222;28;20045;-79
2023/04/01 08:42:50;;;;;;;3.30;1.10;;;9.70;99.90;;;;;;6282303;28;20049;-78
2023/04/01 08:46:14;;;;;;;5.45;1.20;;;9.80;99.90;;;;;;6270876;28;20048;-77
2023/04/01 08:49:34;;;;;;;2.92;1.30;;;9.80;99.90;;;;;;6283214;28;20043;-78
2023/04/01 08:52:38;;;;;;;1.48;0.50;;;9.80;99.90;;;;;;6280513;28;20041;-78
2023/04/01 08:56:04;;;;;;;3.90;1.08;;;9.80;99.90;;;;;;6274530;28;20487;-78
2023/04/01 08:59:32;;;;;;;3.30;0.80;;;9.80;99.90;;;;;;6275347;28;20479;-79
2023/04/01 09:02:55;;;;;;;4.35;1.85;;;9.80;99.90;;;;;;6273210;28;20068;-79
2023/04/01 09:06:24;;;;;;;8.57;1.88;;;9.80;99.90;;;;;;6277396;28;20127;-79
2023/04/01 09:10:08;;;;;;;1.08;0.68;;;9.80;99.90;;;;;;6272524;28;20130;-77
2023/04/01 09:13:27;;;;;;;0.55;0.52;;;9.80;99.90;;;;;;6277751;28;20510;-79
2023/04/01 09:16:57;;;;;;;0.77;0.50;;;9.70;99.90;;;;;;6279728;28;20049;-77
2023/04/01 09:20:24;;;;;;;2.22;0.75;;;9.80;99.90;;;;;;6283201;28;20045;-79
2023/04/01 09:23:41;;;;;;;2.35;0.80;;;9.80;99.90;;;;;;6273591;28;20064;-79
2023/04/01 09:27:02;;;;;;;1.80;0.93;;;9.80;99.90;;;;;;6272653;28;20388;-79
2023/04/01 09:30:49;;;;;;;1.77;0.77;;;9.80;99.90;;;;;;6282161;28;20052;-78
2023/04/01 09:34:33;;;;;;;1.70;0.90;;;9.90;99.90;;;;;;6274543;28;20041;-79
2023/04/01 09:37:42;;;;;;;0.93;0.80;;;9.90;99.90;;;;;;6243532;28;20045;-78
2023/04/01 09:40:50;;;;;;;1.20;1.10;;;9.90;99.90;;;;;;6270005;28;20041;-78
2023/04/01 09:44:03;;;;;;;0.70;0.50;;;9.90;99.90;;;;;;6276789;28;20439;-77
2023/04/01 09:47:21;;;;;;;2.97;0.80;;;9.90;99.90;;;;;;6274677;28;20065;-79
2023/04/01 09:50:40;;;;;;;1.25;0.90;;;9.90;99.90;;;;;;6271456;28;20041;-78
2023/04/01 09:53:55;;;;;;;1.20;0.63;;;9.90;99.90;;;;;;6265878;28;20507;-76
2023/04/01 09:57:34;;;;;;;2.00;0.75;;;9.90;99.90;;;;;;6274616;28;20041;-78
2023/04/01 10:01:00;;;;;;;;;;;9.90;99.90;;;;;;6269872;28;20052;-79
2023/04/01 10:04:46;;;;;;;2.15;0.88;;;9.90;99.90;;;;;;6284665;28;19935;-79
2023/04/01 10:08:24;;;;;;;1.85;0.90;;;9.90;99.90;;;;;;6272621;28;20045;-79
2023/04/01 10:12:05;;;;;;;1.73;0.60;;;9.80;99.90;;;;;;6231371;28;20057;-78
2023/04/01 10:15:40;;;;;;;2.92;2.20;;;9.90;99.90;;;;;;6274242;28;20053;-78
2023/04/01 10:19:08;;;;;;;1.38;0.68;;;10.00;99.90;;;;;;6261568;28;20059;-79
2023/04/01 10:22:46;;;;;;;5.82;4.53;;;10.10;99.90;;;;;;6268972;28;20049;-80
2023/04/01 10:26:13;;;;;;;2.55;0.88;;;10.10;99.90;;;;;;6239128;28;20538;-82
2023/04/01 10:29:46;;;;;;;1.58;0.80;;;10.10;99.90;;;;;;6271871;28;20041;-80
2023/04/01 10:33:34;;;;;;;2.92;0.90;;;10.10;99.90;;;;;;6272588;28;20055;-81
2023/04/01 10:36:55;;;;;;;0.88;0.88;;;10.10;99.90;;;;;;6275368;28;20530;-80
2023/04/01 10:40:26;;;;;;;0.88;0.82;;;10.10;99.90;;;;;;6276944;28;20057;-81
2023/04/01 10:44:00;;;;;;;1.20;0.65;;;10.10;99.90;;;;;;6276280;28;20563;-80
2023/04/01 10:47:35;;;;;;;1.08;0.52;;;10.00;99.90;;;;;;6281543;28;20045;-78
2023/04/01 10:51:02;;;;;;;2.00;0.80;;;10.00;99.90;;;;;;6272285;28;20135;-79
2023/04/01 10:54:35;;;;;;;1.83;0.73;;;10.00;99.90;;;;;;6275128;28;20037;-78
2023/04/01 10:57:56;;;;;;;1.33;0.57;;;10.00;99.90;;;;;;6280575;28;20044;-79
2023/04/01 11:01:23;;;;;;;2.28;0.63;;;10.10;99.90;;;;;;6277354;28;20522;-81
2023/04/01 11:05:24;;;;;;;2.22;0.95;;;10.10;99.90;;;;;;6288405;28;20040;-78
2023/04/01 11:08:50;;;;;;;;;;;10.10;99.90;;;;;;6281428;28;20072;-80
2023/04/01 11:12:21;;;;;;;3.58;1.02;;;10.10;99.90;;;;;;6275648;28;19920;-80
2023/04/01 11:15:45;;;;;;;3.35;0.80;;;10.00;99.90;;;;;;6272438;28;20060;-78
2023/04/01 11:19:18;;;;;;;2.45;0.65;;;10.00;99.90;;;;;;6274057;28;20051;-80
2023/04/01 11:22:38;;;;;;;1.10;0.70;;;9.90;99.90;;;;;;6274988;28;20059;-79
2023/04/01 11:26:08;;;;;;;0.90;0.50;;;10.00;99.90;;;;;;6283107;28;20053;-79
2023/04/01 11:29:34;;;;;;;0.60;0.60;;;9.90;99.90;;;;;;6277870;28;20044;-79
2023/04/01 11:32:54;;;;;;;0.20;0.20;;;10.00;99.90;;;;;;6281129;28;20168;-80
2023/04/01 11:36:12;;;;;;;0.10;0.10;;;10.00;99.90;;;;;;6275813;28;20052;-81
2023/04/01 11:39:21;;;;;;;;;;;10.10;99.90;;;;;;6274040;28;20045;-78
2023/04/01 11:42:35;;;;;;;0.10;0.10;;;10.00;99.90;;;;;;6276776;28;20286;-79
2023/04/01 11:45:43;;;;;;;0.30;0.30;;;10.00;99.90;;;;;;6274997;28;20045;-80
2023/04/01 11:49:26;;;;;;;0.15;0.15;;;10.00;99.90;;;;;;6279843;28;20064;-79
2023/04/01 11:53:01;;;;;;;1.17;1.17;;;10.00;99.90;;;;;;6281255;28;20510;-80
2023/04/01 11:56:12;;;;;;;0.20;0.20;;;10.00;99.90;;;;;;6282349;28;20078;-77
2023/04/01 11:59:40;;;;;;;0.20;0.20;;;10.00;99.90;;;;;;6283197;28;20045;-79
2023/04/01 12:02:56;;;;;;;0.10;0.10;;;10.00;99.90;;;;;;6283839;28;20044;-77
2023/04/01 12:06:06;;;;;;;0.10;0.10;;;10.10;99.90;;;;;;6280391;28;20049;-78
2023/04/01 12:09:17;;;;;;;0.20;0.20;;;10.10;99.90;;;;;;6289115;28;20051;-77
2023/04/01 12:12:26;;;;;;;0.40;0.40;;;10.00;99.90;;;;;;6280674;28;20060;-79
2023/04/01 12:15:39;;;;;;;0.15;0.15;;;10.00;99.90;;;;;;6310294;22;20047;-81
2023/04/01 12:18:54;;;;;;;0.10;0.10;;;10.10;99.90;;;;;;6300391;28;20056;-84
2023/04/01 12:23:01;;;;;;;0.10;0.10;;;10.10;99.90;;;;;;6299878;28;20052;-81
2023/04/01 12:26:34;;;;;;;0.20;0.20;;;10.00;99.90;;;;;;6297904;28;20056;-83
2023/04/01 12:30:02;;;;;;;0.10;0.10;;;10.10;99.90;;;;;;6272799;28;20054;-82
2023/04/01 12:33:49;;;;;;;0.10;0.10;;;10.00;99.90;;;;;;6289535;28;20044;-82
2023/04/01 12:37:03;;;;;;;0.20;0.20;;;10.10;99.90;;;;;;6239199;28;20112;-83
2023/04/01 12:40:28;;;;;;;0.20;0.20;;;10.10;99.90;;;;;;6286429;28;20060;-83
2023/04/01 12:43:57;;;;;;;0.20;0.20;;;10.10;99.90;;;;;;6292296;28;20054;-83
2023/04/01 12:47:25;;;;;;;0.10;0.10;;;10.10;99.90;;;;;;6288791;28;20052;-83
2023/04/01 12:50:52;;;;;;;0.20;0.20;;;10.10;99.90;;;;;;6290956;28;20040;-83
2023/04/01 12:54:49;;;;;;;0.10;0.10;;;10.10;99.90;;;;;;6293430;28;20040;-83
2023/04/01 12:58:20;;;;;;;0.20;0.20;;;10.10;99.90;;;;;;6252180;28;20080;-82
2023/04/01 13:01:31;;;;;;;0.20;0.20;;;10.10;99.90;;;;;;6287665;28;20064;-83
2023/04/01 13:04:50;;;;;;;0.30;0.30;;;10.10;99.90;;;;;;6293850;28;20044;-82
2023/04/01 13:08:00;;;;;;;0.30;0.30;;;10.00;99.90;;;;;;6293430;28;20044;-83
2023/04/01 13:11:14;;;;;;;0.30;0.30;;;10.00;99.90;;;;;;6291954;28;20467;-86
2023/04/01 13:14:42;;;;;;;0.20;0.20;;;10.00;99.90;;;;;;6293596;28;20137;-83
2023/04/01 13:17:51;;;;;;;0.30;0.30;;;10.00;99.90;;;;;;6292603;28;20048;-82
2023/04/01 13:21:03;;;;;;;0.30;0.30;;;10.00;99.90;;;;;;6292146;28;20040;-82
2023/04/01 13:24:14;;;;;;;0.28;0.28;;;10.10;99.90;;;;;;6290349;28;20083;-83
2023/04/01 13:27:52;;;;;;;;;;;;;;;;;;;;;
2023/04/01 13:34:36;;;;;;;0.15;0.15;;;9.90;99.90;;;;;;6290006;28;20041;-81
2023/04/01 13:38:06;;;;;;;0.10;0.10;;;9.80;99.90;;;;;;6287548;28;20135;-80
2023/04/01 13:41:21;;;;;;;0.20;0.20;;;9.80;99.90;;;;;;6287807;28;20048;-81
2023/04/01 13:44:31;;;;;;;0.43;0.43;;;9.80;99.90;;;;;;6290441;28;20047;-79
2023/04/01 13:48:02;;;;;;;0.30;0.30;;;9.80;99.90;;;;;;6287410;28;20045;-82
2023/04/01 13:51:19;;;;;;;0.30;0.30;;;9.70;99.90;;;;;;6294376;28;20506;-82
2023/04/01 13:54:36;;;;;;;0.20;0.20;;;9.70;99.90;;;;;;6293055;28;20044;-82
2023/04/01 13:57:54;;;;;;;2.83;0.30;;;9.70;99.90;;;;;;6291666;28;20055;-82
2023/04/01 14:01:06;;;;;;;0.50;0.50;;;9.80;99.90;;;;;;6291742;28;20553;-81
2023/04/01 14:04:48;;;;;;;0.50;0.50;;;9.80;99.90;;;;;;6287533;28;20051;-82
2023/04/01 14:08:05;;;;;;;2.88;0.60;;;9.80;99.90;;;;;;6218311;28;20065;-80
2023/04/01 14:11:14;;;;;;;1.00;0.60;;;9.80;99.90;;;;;;6290377;28;20402;-82
2023/04/01 14:14:28;;;;;;;1.83;1.42;;;9.70;99.90;;;;;;6292213;28;20044;-81
2023/04/01 14:17:48;;;;;;;3.58;0.70;;;9.80;99.90;;;;;;6291464;28;20735;-81
2023/04/01 14:20:57;;;;;;;2.35;0.75;;;9.70;99.90;;;;;;6294569;28;20049;-82
2023/04/01 14:24:28;;;;;;;0.70;0.70;;;9.70;99.90;;;;;;6293601;28;20051;-81
2023/04/01 14:28:16;;;;;;;0.88;0.88;;;9.80;99.90;;;;;;6296147;28;20052;-81
2023/04/01 14:48:03;;;;;;;3.20;0.88;;;10.00;99.90;;;;;;6135993;28;20081;-81
2023/04/01 14:51:32;;;;;;;2.22;0.80;;;10.00;99.90;;;;;;6211164;28;20050;-81
2023/04/01 14:54:37;;;;;;;3.38;2.95;;;10.10;99.90;;;;;;6207896;28;20057;-83
2023/04/01 14:57:39;;;;;;;1.92;1.33;;;10.00;99.90;;;;;;6215379;28;20691;-84
2023/04/01 15:00:51;;;;;;;0.70;0.60;;;10.10;99.90;;;;;;6292858;28;20048;-83
2023/04/01 15:03:59;;;;;;;1.38;0.70;;;10.10;99.90;;;;;;6294397;28;20045;-83
2023/04/01 15:07:10;;;;;;;;;;;10.10;99.90;;;;;;6297500;28;20044;-83
2023/04/01 15:10:27;;;;;;;1.45;0.73;;;10.10;99.90;;;;;;6287748;28;20363;-84
2023/04/01 15:13:57;;;;;;;0.90;0.70;;;10.10;99.90;;;;;;6287017;28;20048;-83
2023/04/01 15:17:15;;;;;;;1.92;0.80;;;10.10;99.90;;;;;;6285686;28;20183;-83
2023/04/01 15:21:03;;;;;;;0.95;0.65;;;10.10;99.90;;;;;;6296586;28;20493;-81
2023/04/01 15:24:13;;;;;;;1.05;0.60;;;10.10;99.90;;;;;;6292901;28;20048;-83
2023/04/01 15:27:34;;;;;;;3.70;0.80;;;10.10;99.90;;;;;;6295556;28;20048;-82
2023/04/01 15:30:40;;;;;;;0.73;0.57;;;10.10;99.90;;;;;;6293430;28;20072;-83
2023/04/01 15:33:55;;;;;;;1.88;1.20;;;10.10;99.90;;;;;;6295502;28;20078;-83
2023/04/01 15:37:02;;;;;;;2.78;0.80;;;10.10;99.90;;;;;;6293478;28;20063;-82
2023/04/01 15:45:06;;;;;;;2.78;1.38;;;10.20;99.90;;;;;;6204831;28;20065;-82
2023/04/01 15:52:59;;;;;;;5.75;1.27;;;10.20;99.90;;;;;;6071350;29;20045;-81
2023/04/01 16:04:20;;;;;;;2.47;0.95;;;9.90;99.90;;;;;;6189958;28;20054;-80
2023/04/01 16:15:10;;;;;;;2.85;1.80;;;10.00;99.90;;;;;;6187406;28;20551;-82
2023/04/01 16:18:41;;;;;;;1.63;1.20;;;10.10;99.90;;;;;;6184166;28;20427;-80
2023/04/01 16:21:51;;;;;;;2.00;1.10;;;10.20;99.90;;;;;;6204238;28;20130;-82
2023/04/01 16:25:00;;;;;;;1.55;0.90;;;10.30;99.90;;;;;;6286907;28;20468;-83
2023/04/01 16:28:16;;;;;;;4.45;1.00;;;10.20;99.90;;;;;;6296488;28;20045;-82
2023/04/01 16:31:31;;;;;;;2.22;1.08;;;10.20;99.90;;;;;;6301392;28;20122;-79
2023/04/01 16:34:38;;;;;;;2.65;1.58;;;10.10;99.90;;;;;;6299347;28;20150;-82
2023/04/01 16:37:47;;;;;;;4.90;2.75;;;10.10;99.90;;;;;;6291973;28;20060;-81
2023/04/01 16:41:01;;;;;;;1.88;1.58;;;10.10;99.90;;;;;;6288942;28;20044;-80
2023/04/01 16:44:14;;;;;;;1.88;1.40;;;10.10;99.90;;;;;;6286968;28;20051;-81
2023/04/01 16:47:20;;;;;;;2.13;1.88;;;10.00;99.90;;;;;;6286419;28;20049;-80
2023/04/01 16:50:23;;;;;;;2.58;1.45;;;10.00;99.90;;;;;;6290856;28;20134;-81
2023/04/01 16:53:43;;;;;;;4.80;2.92;;;9.90;99.90;;;;;;6286555;28;20110;-79
2023/04/01 16:56:50;;;;;;;2.38;1.30;;;9.90;99.90;;;;;;6292146;28;20052;-78
2023/04/01 17:00:00;;;;;;;2.78;2.33;;;9.90;99.90;;;;;;6289164;28;20055;-80
2023/04/01 17:03:17;;;;;;;3.05;2.45;;;9.80;99.90;;;;;;6290548;28;20060;-80
2023/04/01 17:06:30;;;;;;;1.58;1.08;;;9.80;99.90;;;;;;6288769;28;20059;-80
2023/04/01 17:09:48;;;;;;;1.17;1.05;;;9.80;99.90;;;;;;6287053;28;20048;-81
2023/04/01 17:12:57;;;;;;;2.35;1.20;;;9.70;99.90;;;;;;6290183;28;20067;-80
2023/04/01 17:16:10;;;;;;;2.38;1.25;;;9.80;99.90;;;;;;6289202;28;20048;-80
2023/04/01 17:19:24;;;;;;;2.25;1.20;;;9.70;99.90;;;;;;6286677;28;20043;-81
2023/04/01 17:22:35;;;;;;;3.55;1.10;;;9.70;99.90;;;;;;6287558;28;20500;-79
2023/04/01 17:26:00;;;;;;;1.60;1.15;;;9.80;99.90;;;;;;6287472;28;20055;-79
2023/04/01 17:36:41;;;;;;;2.08;1.10;;;9.70;99.90;;;;;;6271237;28;20064;-81
2023/04/01 17:40:07;;;;;;;4.85;1.20;;;9.70;99.90;;;;;;6294959;28;20060;-80
2023/04/01 17:51:26;;;;;;;2.08;0.93;;;9.70;99.90;;;;;;6259356;27;20434;-77
2023/04/01 17:54:36;;;;;;;7.05;1.02;;;9.60;99.90;;;;;;6256372;28;20049;-77